createdAt,value
2022-12-09T00:03:00.864Z,99131.00
2022-12-09T00:08:02.548Z,99131.00
2022-12-09T00:13:04.419Z,99114.09
2022-12-09T00:18:05.956Z,99117.34
2022-12-09T00:23:07.669Z,99119.47
2022-12-09T00:28:09.056Z,99117.59
2022-12-09T00:33:10.570Z,99123.03
2022-12-09T00:38:12.025Z,99128.50
2022-12-09T00:43:13.431Z,99112.13
2022-12-09T00:48:14.874Z,99121.09
2022-12-09T00:53:16.427Z,99122.22
2022-12-09T00:58:17.811Z,99125.72
2022-12-09T01:03:19.530Z,99125.50
2022-12-09T01:08:21.166Z,99132.34
2022-12-09T01:13:22.832Z,99131.44
2022-12-09T01:18:24.492Z,99140.78
2022-12-09T01:23:26.149Z,99146.47
2022-12-09T01:28:27.678Z,99146.25
2022-12-09T01:33:29.418Z,99139.16
2022-12-09T01:38:30.893Z,99137.81
2022-12-09T01:43:32.409Z,99133.13
2022-12-09T01:48:36.394Z,99139.16
2022-12-09T01:53:38.846Z,99137.47
2022-12-09T01:58:40.406Z,99134.97
2022-12-09T02:03:41.935Z,99124.94
2022-12-09T02:08:44.070Z,99114.31
2022-12-09T02:13:55.280Z,99118.94
2022-12-09T02:19:08.190Z,99114.31
2022-12-09T02:24:27.981Z,99115.88
2022-12-09T02:29:51.191Z,99107.69
2022-12-09T02:35:13.048Z,99107.19
2022-12-09T02:40:23.535Z,99109.91
2022-12-09T02:45:25.075Z,99107.19
2022-12-09T02:50:28.504Z,99116.16
2022-12-09T02:55:30.361Z,99105.22
2022-12-09T03:00:31.850Z,99097.34
2022-12-09T03:05:34.075Z,99102.78
2022-12-09T03:10:39.302Z,99095.69
2022-12-09T03:15:42.895Z,99095.13
2022-12-09T03:20:44.673Z,99099.50
2022-12-09T03:25:47.165Z,99097.59
2022-12-09T03:30:48.967Z,99099.56
2022-12-09T03:35:52.409Z,99101.72
2022-12-09T03:40:58.295Z,99093.78
2022-12-09T03:45:59.886Z,99091.06
2022-12-09T03:51:06.925Z,99096.75
2022-12-09T03:56:24.397Z,99092.66
2022-12-09T04:01:26.126Z,99085.84
2022-12-09T04:06:27.782Z,99087.50
2022-12-09T04:11:29.628Z,99081.19
2022-12-09T04:16:31.143Z,99078.22
2022-12-09T04:21:32.567Z,99067.00
2022-12-09T04:26:34.272Z,99076.56
2022-12-09T04:31:35.836Z,99068.38
2022-12-09T04:36:37.945Z,99072.19
2022-12-09T04:41:39.739Z,99059.88
2022-12-09T04:46:41.288Z,99066.19
2022-12-09T04:51:42.924Z,99068.91
2022-12-09T04:56:44.481Z,99084.28
2022-12-09T05:01:46.034Z,99079.09
2022-12-09T05:06:48.074Z,99082.03
2022-12-09T05:11:51.950Z,99083.69
2022-12-09T05:16:53.782Z,99082.56
2022-12-09T05:21:55.305Z,99083.69
2022-12-09T05:26:57.058Z,99084.53
2022-12-09T05:31:58.892Z,99078.53
2022-12-09T05:37:00.599Z,99076.28
2022-12-09T05:42:02.400Z,99079.00
2022-12-09T05:47:04.050Z,99083.09
2022-12-09T05:52:06.257Z,99075.25
2022-12-09T05:57:08.094Z,99072.81
2022-12-09T06:02:10.431Z,99066.81
2022-12-09T06:07:12.545Z,99066.81
2022-12-09T06:12:14.694Z,99068.66
2022-12-09T06:17:16.466Z,99064.56
2022-12-09T06:22:17.999Z,99061.34
2022-12-09T06:27:19.435Z,99061.63
2022-12-09T06:32:21.087Z,99066.00
2022-12-09T06:37:22.982Z,99075.84
2022-12-09T06:42:24.431Z,99071.16
2022-12-09T06:47:26.392Z,99069.78
2022-12-09T06:52:28.198Z,99067.38
2022-12-09T06:57:30.043Z,99068.19
2022-12-09T07:02:36.161Z,99060.25
2022-12-09T07:07:38.771Z,99071.94
2022-12-09T07:12:40.262Z,99072.72
2022-12-09T07:17:42.104Z,99075.00
2022-12-09T07:22:43.712Z,99084.28
2022-12-09T07:27:45.317Z,99081.53
2022-12-09T07:32:46.717Z,99088.13
2022-12-09T07:37:48.719Z,99085.84
2022-12-09T07:42:53.708Z,99087.50
2022-12-09T07:47:59.199Z,99082.31
2022-12-09T07:53:00.763Z,99081.84
2022-12-09T07:58:02.329Z,99083.44
2022-12-09T08:03:04.212Z,99082.63
2022-12-09T08:08:06.343Z,99088.31
2022-12-09T08:13:08.016Z,99091.06
2022-12-09T08:18:09.513Z,99090.81
2022-12-09T08:23:11.061Z,99091.88
2022-12-09T08:28:12.950Z,99089.44
2022-12-09T08:33:14.895Z,99096.50
2022-12-09T08:38:16.720Z,99097.59
2022-12-09T08:43:18.498Z,99090.50
2022-12-09T08:48:19.946Z,99095.19
2022-12-09T08:53:22.185Z,99097.59
2022-12-09T08:58:23.742Z,99085.66
2022-12-09T09:03:25.514Z,99075.00
2022-12-09T09:08:27.467Z,99074.91
2022-12-09T09:13:29.330Z,99064.31
2022-12-09T09:18:30.981Z,99072.53
2022-12-09T09:23:32.676Z,99077.16
2022-12-09T09:28:34.220Z,99071.13
2022-12-09T09:33:35.821Z,99058.28
2022-12-09T09:38:37.802Z,99065.72
2022-12-09T09:43:40.206Z,99054.78
2022-12-09T09:48:41.780Z,99053.06
2022-12-09T09:53:43.760Z,99041.38
2022-12-09T09:58:51.936Z,99035.41
2022-12-09T10:04:20.760Z,99029.38
2022-12-09T10:09:29.216Z,99030.16
2022-12-09T10:14:58.430Z,99017.88
2022-12-09T10:20:17.746Z,99011.28
2022-12-09T10:25:27.985Z,99008.84
2022-12-09T10:30:36.277Z,99001.53
2022-12-09T10:35:41.819Z,98990.88
2022-12-09T10:40:47.162Z,98989.22
2022-12-09T10:46:17.316Z,98979.69
2022-12-09T10:51:16.625Z,98974.47
2022-12-09T10:56:26.680Z,98976.72
2022-12-09T11:01:28.801Z,98969.91
2022-12-09T11:06:37.561Z,98964.41
2022-12-09T11:11:44.612Z,98969.03
2022-12-09T11:16:46.558Z,98963.56
2022-12-09T11:21:48.546Z,98960.06
2022-12-09T11:26:50.312Z,98963.06
2022-12-09T11:31:52.268Z,98967.16
2022-12-09T11:36:56.495Z,98963.81
2022-12-09T11:42:18.539Z,98961.97
2022-12-09T11:47:57.376Z,98961.41
2022-12-09T11:53:13.082Z,98957.28
2022-12-09T11:58:16.089Z,98955.63
2022-12-09T12:03:36.000Z,98963.84
2022-12-09T12:08:43.351Z,98961.41
2022-12-09T12:13:49.177Z,98956.72
2022-12-09T12:18:58.263Z,98951.53
2022-12-09T12:24:11.237Z,98958.09
2022-12-09T12:29:39.985Z,98951.88
2022-12-09T12:35:13.913Z,98942.03
2022-12-09T12:40:37.919Z,98942.81
2022-12-09T12:46:18.645Z,98938.50
2022-12-09T12:51:32.114Z,98933.28
2022-12-09T12:56:51.326Z,98924.78
2022-12-09T13:01:54.452Z,98924.53
2022-12-09T13:07:33.072Z,98921.53
2022-12-09T13:12:54.056Z,98913.34
2022-12-09T13:17:55.519Z,98911.94
2022-12-09T13:23:01.540Z,98913.84
2022-12-09T13:28:08.444Z,98916.13
2022-12-09T13:33:41.175Z,98912.81
2022-12-09T13:38:42.789Z,98907.84
2022-12-09T13:43:44.384Z,98907.31
2022-12-09T13:48:46.495Z,98906.81
2022-12-09T13:54:03.739Z,98895.66
2022-12-09T13:59:31.514Z,98901.31
2022-12-09T14:04:35.891Z,98890.97
2022-12-09T14:09:49.292Z,98904.91
2022-12-09T14:15:05.540Z,98898.91
2022-12-09T14:20:17.970Z,98890.97
2022-12-09T14:25:25.317Z,98884.13
2022-12-09T14:30:29.576Z,98891.00
2022-12-09T14:35:43.548Z,98883.91
2022-12-09T14:40:53.509Z,98893.75
2022-12-09T14:45:57.826Z,98889.59
2022-12-09T14:51:58.071Z,98885.81
2022-12-09T14:57:01.132Z,98882.25
2022-12-09T15:02:08.492Z,98880.06
2022-12-09T15:07:16.730Z,98878.94
2022-12-09T15:12:18.307Z,98875.16
2022-12-09T15:17:28.557Z,98867.81
2022-12-09T15:22:31.376Z,98876.78
2022-12-09T15:27:32.768Z,98880.63
2022-12-09T15:32:38.146Z,98875.69
2022-12-09T15:37:39.516Z,98865.06
2022-12-09T15:42:42.483Z,98873.50
2022-12-09T15:47:57.387Z,98884.69
2022-12-09T15:53:22.966Z,98884.44
2022-12-09T15:58:30.109Z,98888.00
2022-12-09T16:03:33.066Z,98888.00
2022-12-09T16:08:42.833Z,98890.72
2022-12-09T16:14:00.035Z,98884.44
2022-12-09T16:19:01.454Z,98875.16
2022-12-09T16:24:15.540Z,98878.16
2022-12-09T16:29:27.851Z,98889.34
2022-12-09T16:34:29.273Z,98883.06
2022-12-09T16:39:34.011Z,98889.66
2022-12-09T16:44:35.985Z,98878.97
2022-12-09T16:49:37.849Z,98889.34
2022-12-09T16:54:39.239Z,98876.53
2022-12-09T16:59:41.360Z,98869.16
2022-12-09T17:04:42.728Z,98865.03
2022-12-09T17:09:44.128Z,98865.31
2022-12-09T17:14:45.583Z,98867.50
2022-12-09T17:19:46.956Z,98866.41
2022-12-09T17:24:48.668Z,98861.47
2022-12-09T17:29:50.033Z,98868.88
2022-12-09T17:34:53.475Z,98870.78
2022-12-09T17:40:03.055Z,98872.69
2022-12-09T17:45:05.621Z,98877.06
2022-12-09T17:50:07.657Z,98875.69
2022-12-09T17:55:09.855Z,98884.16
2022-12-09T18:00:11.848Z,98891.25
2022-12-09T18:05:13.207Z,98894.81
2022-12-09T18:10:14.619Z,98901.63
2022-12-09T18:15:16.010Z,98913.63
2022-12-09T18:20:17.380Z,98903.25
2022-12-09T18:25:18.752Z,98917.50
2022-12-09T18:30:20.125Z,98914.19
2022-12-09T18:35:21.492Z,98908.72
2022-12-09T18:40:23.379Z,98916.06
2022-12-09T18:45:24.864Z,98921.00
2022-12-09T18:50:26.222Z,98920.22
2022-12-09T18:55:27.612Z,98921.59
2022-12-09T19:00:29.038Z,98922.09
2022-12-09T19:05:30.411Z,98919.88
2022-12-09T19:10:31.823Z,98918.00
2022-12-09T19:15:33.228Z,98916.91
2022-12-09T19:20:34.678Z,98925.09
2022-12-09T19:25:40.000Z,98918.56
2022-12-09T19:30:45.399Z,98930.84
2022-12-09T19:35:50.926Z,98928.13
2022-12-09T19:40:52.291Z,98927.28
2022-12-09T19:45:53.698Z,98938.22
2022-12-09T19:50:55.084Z,98927.84
2022-12-09T19:56:00.153Z,98933.03
2022-12-09T20:01:08.063Z,98934.38
2022-12-09T20:06:10.560Z,98931.91
2022-12-09T20:11:16.434Z,98937.97
2022-12-09T20:16:18.534Z,98937.38
2022-12-09T20:21:20.137Z,98931.09
2022-12-09T20:26:23.666Z,98933.56
2022-12-09T20:31:30.705Z,98935.47
2022-12-09T20:36:33.010Z,98948.06
2022-12-09T20:41:34.541Z,98948.06
2022-12-09T20:46:35.924Z,98952.16
2022-12-09T20:51:38.319Z,98945.88
2022-12-09T20:56:40.152Z,98950.78
2022-12-09T21:01:41.669Z,98956.78
2022-12-09T21:06:43.382Z,98949.13
2022-12-09T21:11:45.519Z,98949.97
2022-12-09T21:16:47.408Z,98944.78
2022-12-09T21:21:50.501Z,98937.16
2022-12-09T21:26:55.890Z,98938.22
2022-12-09T21:31:57.293Z,98945.63
2022-12-09T21:36:58.766Z,98947.53
2022-12-09T21:42:00.126Z,98955.38
2022-12-09T21:47:01.487Z,98957.31
2022-12-09T21:52:04.700Z,98959.50
2022-12-09T21:57:06.150Z,98964.16
2022-12-09T22:02:07.562Z,98967.47
2022-12-09T22:07:08.972Z,98964.44
2022-12-09T22:12:10.370Z,98969.06
2022-12-09T22:17:11.760Z,98975.06
2022-12-09T22:22:13.122Z,98988.44
2022-12-09T22:27:14.507Z,98981.38
2022-12-09T22:32:16.209Z,98984.38
2022-12-09T22:37:42.315Z,98982.72
2022-12-09T22:42:39.922Z,98985.44
2022-12-09T22:47:41.311Z,98980.25
2022-12-09T22:52:42.671Z,98977.28
2022-12-09T22:57:44.047Z,98985.47
2022-12-09T23:02:45.503Z,98980.53
2022-12-09T23:07:46.980Z,98982.19
2022-12-09T23:12:48.423Z,98987.91
2022-12-09T23:17:49.823Z,98991.75
2022-12-09T23:22:51.194Z,98979.16
2022-12-09T23:27:52.580Z,98984.63
2022-12-09T23:32:53.944Z,98987.09
2022-12-09T23:37:55.304Z,98982.44
2022-12-09T23:42:56.671Z,98986.84
2022-12-09T23:47:58.062Z,98979.72
2022-12-09T23:52:59.445Z,98982.19
2022-12-09T23:58:00.837Z,98990.88
